Time;durP1;ratioP1;P1;durP2;ratioP2;P2;SDS_P1;SDS_P2;PMS_P1;PMS_P2;Temp;Humidity;BMP_temperature;BMP_pressure;BME280_temperature;BME280_humidity;BME280_pressure;Samples;Min_cycle;Max_cycle;Signal;HPM_P1;HPM_P2
2022/04/30 00:00:32;;;;;;;10.40;8.13;;;13.30;60.70;;;;;;5096471;28;20440;-66
2022/04/30 00:03:00;;;;;;;11.77;7.23;;;13.20;60.90;;;;;;5096732;28;20485;-66
2022/04/30 00:05:30;;;;;;;10.23;9.23;;;13.20;61.20;;;;;;5097368;28;20481;-66
2022/04/30 00:07:57;;;;;;;9.10;8.07;;;13.20;61.40;;;;;;5095893;28;20915;-66
2022/04/30 00:10:24;;;;;;;9.87;8.77;;;13.10;61.50;;;;;;5096186;28;20455;-66
2022/04/30 00:12:52;;;;;;;9.00;7.67;;;13.10;61.80;;;;;;5095965;28;20507;-66
2022/04/30 00:15:19;;;;;;;10.80;9.03;;;13.10;61.70;;;;;;5096342;28;20450;-66
2022/04/30 00:17:46;;;;;;;9.77;7.80;;;13.10;62.30;;;;;;5096048;28;20448;-66
2022/04/30 00:20:13;;;;;;;8.00;7.20;;;13.10;62.60;;;;;;5094563;28;21014;-66
2022/04/30 00:22:41;;;;;;;10.77;7.50;;;13.10;62.70;;;;;;5095860;28;20459;-66
2022/04/30 00:25:09;;;;;;;10.10;8.20;;;13.00;62.90;;;;;;5096134;28;20443;-66
2022/04/30 00:27:36;;;;;;;8.63;7.83;;;13.00;62.90;;;;;;5096621;28;20478;-66
2022/04/30 00:30:03;;;;;;;8.80;7.63;;;13.00;63.20;;;;;;5096786;28;20432;-66
2022/04/30 00:32:31;;;;;;;8.20;6.70;;;13.00;63.30;;;;;;5095631;28;20490;-66
2022/04/30 00:35:00;;;;;;;8.33;7.50;;;13.00;63.30;;;;;;5095800;28;20451;-66
2022/04/30 00:37:27;;;;;;;9.10;8.20;;;13.00;63.40;;;;;;5094893;28;20497;-66
2022/04/30 00:39:55;;;;;;;8.27;7.47;;;12.90;63.40;;;;;;5095421;28;20448;-66
2022/04/30 00:42:22;;;;;;;9.47;8.10;;;12.90;63.40;;;;;;5095797;28;20468;-66
2022/04/30 00:44:49;;;;;;;7.93;7.13;;;12.80;63.20;;;;;;5095330;28;20468;-66
2022/04/30 00:47:18;;;;;;;12.33;8.00;;;12.80;63.50;;;;;;5095928;28;20448;-66
2022/04/30 00:49:45;;;;;;;8.13;7.33;;;12.80;63.70;;;;;;5094956;28;20491;-66
2022/04/30 00:52:16;;;;;;;9.37;7.90;;;12.80;63.80;;;;;;5084330;28;20480;-66
2022/04/30 00:54:48;;;;;;;9.40;8.27;;;12.70;63.70;;;;;;5075127;28;20432;-66
2022/04/30 00:57:19;;;;;;;8.30;7.30;;;12.70;63.90;;;;;;5074980;28;20429;-66
2022/04/30 00:59:50;;;;;;;7.87;7.10;;;12.60;64.00;;;;;;5074917;28;20934;-66
2022/04/30 01:02:17;;;;;;;7.43;6.73;;;12.60;64.30;;;;;;5074806;28;20979;-66
2022/04/30 01:04:44;;;;;;;12.00;8.07;;;12.60;64.60;;;;;;5074799;28;20451;-66
2022/04/30 01:07:11;;;;;;;8.20;7.10;;;12.60;64.60;;;;;;5074843;28;20441;-65
2022/04/30 01:09:43;;;;;;;8.33;7.53;;;12.50;64.70;;;;;;5075267;28;20445;-65
2022/04/30 01:12:10;;;;;;;8.63;7.73;;;12.40;64.80;;;;;;5074407;28;20560;-66
2022/04/30 01:14:40;;;;;;;8.93;6.50;;;12.40;65.00;;;;;;5074787;28;20456;-66
2022/04/30 01:17:10;;;;;;;10.47;7.90;;;12.40;65.30;;;;;;5074447;28;20451;-66
2022/04/30 01:19:39;;;;;;;9.33;7.40;;;12.30;65.30;;;;;;5074945;28;20804;-66
2022/04/30 01:22:10;;;;;;;9.90;8.60;;;12.30;65.60;;;;;;5073937;28;20996;-66
2022/04/30 01:24:39;;;;;;;8.77;7.87;;;12.30;65.90;;;;;;5074100;28;20912;-66
2022/04/30 01:27:06;;;;;;;8.90;6.93;;;12.20;65.90;;;;;;5074360;28;20484;-66
2022/04/30 01:29:36;;;;;;;10.50;7.10;;;12.20;66.30;;;;;;5074254;28;20456;-66
2022/04/30 01:37:36;;;;;;;9.73;7.70;;;12.10;66.90;;;;;;5074429;28;20396;-65
2022/04/30 01:40:06;;;;;;;10.20;7.30;;;12.00;67.20;;;;;;5074065;28;20432;-66
2022/04/30 01:42:36;;;;;;;9.33;8.10;;;12.00;67.40;;;;;;5074275;28;20460;-66
2022/04/30 01:45:05;;;;;;;8.03;7.33;;;12.00;67.50;;;;;;5074132;28;20456;-65
2022/04/30 01:47:33;;;;;;;9.23;6.70;;;12.00;67.60;;;;;;5073920;28;20964;-65
2022/04/30 01:50:00;;;;;;;8.43;6.97;;;11.90;67.70;;;;;;5074147;28;20440;-66
2022/04/30 01:52:27;;;;;;;10.57;6.43;;;11.90;68.00;;;;;;5073989;28;20468;-66
2022/04/30 01:54:54;;;;;;;7.83;7.03;;;11.80;68.10;;;;;;5074309;28;20472;-65
2022/04/30 01:57:25;;;;;;;7.33;6.17;;;11.80;68.30;;;;;;5074749;28;20448;-65
2022/04/30 01:59:52;;;;;;;9.07;7.43;;;11.80;68.60;;;;;;5075196;28;20433;-66
2022/04/30 02:02:22;;;;;;;11.13;7.47;;;11.80;68.60;;;;;;5073602;28;20480;-65
2022/04/30 02:04:49;;;;;;;8.33;6.63;;;11.70;68.60;;;;;;5073315;28;20456;-65
2022/04/30 02:07:17;;;;;;;12.13;8.17;;;11.70;68.80;;;;;;5073208;28;20862;-65
2022/04/30 02:09:44;;;;;;;7.63;6.50;;;11.70;69.00;;;;;;5073601;28;20477;-65
2022/04/30 02:12:11;;;;;;;7.43;6.70;;;11.70;69.20;;;;;;5073674;28;20479;-65
2022/04/30 02:14:42;;;;;;;10.57;7.77;;;11.60;69.20;;;;;;5073736;28;20483;-65
2022/04/30 02:17:11;;;;;;;8.47;6.50;;;11.60;69.30;;;;;;5073855;28;20474;-65
2022/04/30 02:22:22;;;;;;;7.67;6.87;;;11.50;69.60;;;;;;5072931;28;20448;-66
2022/04/30 02:24:49;;;;;;;9.27;7.10;;;11.50;69.70;;;;;;5073523;28;20826;-65
2022/04/30 02:27:17;;;;;;;10.37;6.23;;;11.40;69.90;;;;;;5073382;28;20445;-66
2022/04/30 02:29:45;;;;;;;8.23;7.40;;;11.40;70.10;;;;;;5073513;28;20502;-66
2022/04/30 02:32:12;;;;;;;10.63;7.53;;;11.40;70.30;;;;;;5073442;28;20475;-66
2022/04/30 02:34:39;;;;;;;11.83;8.27;;;11.30;70.60;;;;;;5073162;28;20994;-66
2022/04/30 02:37:06;;;;;;;7.23;6.40;;;11.30;70.90;;;;;;5073646;28;20459;-66
2022/04/30 02:39:33;;;;;;;15.00;9.03;;;11.30;71.00;;;;;;5073344;28;20931;-66
2022/04/30 02:42:00;;;;;;;9.37;6.20;;;11.30;71.20;;;;;;5073447;28;20471;-66
2022/04/30 02:44:26;;;;;;;13.60;7.13;;;11.30;71.30;;;;;;5076606;28;20464;-66
2022/04/30 02:46:56;;;;;;;9.30;6.23;;;11.20;71.20;;;;;;5077181;28;20448;-66
2022/04/30 02:49:22;;;;;;;10.43;6.87;;;11.20;71.20;;;;;;5077308;28;20484;-65
2022/04/30 02:51:50;;;;;;;10.20;6.97;;;11.20;71.30;;;;;;5077078;28;21005;-66
2022/04/30 02:54:16;;;;;;;10.43;7.20;;;11.20;71.60;;;;;;5077226;28;20476;-65
2022/04/30 02:56:43;;;;;;;8.80;6.40;;;11.10;71.60;;;;;;5077179;28;20456;-66
2022/04/30 03:01:55;;;;;;;8.80;7.00;;;11.10;72.20;;;;;;5076918;28;20863;-65
2022/04/30 03:04:23;;;;;;;9.87;7.20;;;11.10;72.20;;;;;;5077259;28;20439;-66
2022/04/30 03:06:49;;;;;;;9.93;7.10;;;11.10;72.20;;;;;;5077245;28;20445;-66
2022/04/30 03:09:18;;;;;;;10.47;6.83;;;11.10;72.30;;;;;;5076804;28;20444;-66
2022/04/30 03:11:45;;;;;;;9.27;7.10;;;11.00;72.40;;;;;;5077147;28;20468;-65
2022/04/30 03:14:13;;;;;;;10.53;7.20;;;11.00;72.60;;;;;;5077635;28;20506;-65
2022/04/30 03:22:24;;;;;;;10.23;7.43;;;10.90;73.00;;;;;;5034863;28;20453;-66
2022/04/30 03:24:51;;;;;;;7.47;6.30;;;10.80;73.00;;;;;;5058365;28;20440;-66
2022/04/30 03:27:18;;;;;;;9.80;7.83;;;10.80;73.20;;;;;;5076647;28;20449;-66
2022/04/30 03:29:46;;;;;;;9.40;6.73;;;10.80;73.40;;;;;;5076591;28;20993;-66
2022/04/30 03:32:13;;;;;;;7.87;7.10;;;10.80;73.60;;;;;;5076478;28;20468;-66
2022/04/30 03:34:41;;;;;;;7.80;6.80;;;10.80;73.70;;;;;;5076456;28;20479;-66
2022/04/30 03:37:08;;;;;;;8.30;6.60;;;10.70;74.80;;;;;;5076451;28;20452;-66
2022/04/30 03:39:34;;;;;;;11.30;7.90;;;10.70;74.40;;;;;;5076615;28;20445;-66
2022/04/30 03:42:01;;;;;;;8.90;8.10;;;10.70;74.80;;;;;;5076063;28;20990;-67
2022/04/30 03:44:28;;;;;;;9.07;7.03;;;10.70;75.00;;;;;;5076198;28;20452;-67
2022/04/30 03:46:55;;;;;;;9.63;7.60;;;10.70;75.40;;;;;;5076401;28;20455;-67
2022/04/30 03:49:23;;;;;;;10.90;7.30;;;10.70;75.40;;;;;;5076303;28;20455;-67
2022/04/30 03:51:51;;;;;;;10.60;7.60;;;10.70;75.50;;;;;;5076796;28;20487;-66
2022/04/30 03:54:17;;;;;;;13.57;8.27;;;10.60;75.40;;;;;;5075883;28;20480;-67
2022/04/30 03:56:44;;;;;;;14.87;6.83;;;10.60;75.40;;;;;;5075907;28;20448;-67
2022/04/30 03:59:11;;;;;;;8.97;7.03;;;10.60;75.60;;;;;;5075949;28;20452;-67
2022/04/30 04:01:39;;;;;;;10.83;7.70;;;10.60;75.60;;;;;;5076018;28;20456;-67
2022/04/30 04:04:06;;;;;;;8.60;7.23;;;10.50;75.40;;;;;;5075961;28;20438;-67
2022/04/30 04:06:33;;;;;;;10.40;8.30;;;10.50;75.50;;;;;;5075848;28;20909;-67
2022/04/30 04:09:01;;;;;;;8.27;7.23;;;10.50;75.60;;;;;;5075844;28;20452;-67
2022/04/30 04:11:27;;;;;;;11.20;8.20;;;10.50;75.80;;;;;;5075735;28;20475;-67
2022/04/30 04:19:26;;;;;;;8.40;7.07;;;10.50;75.90;;;;;;5075916;28;20782;-67
2022/04/30 04:21:52;;;;;;;7.97;6.40;;;10.40;75.80;;;;;;5075615;28;20556;-67
2022/04/30 04:27:05;;;;;;;10.00;7.30;;;10.30;75.90;;;;;;5075312;28;20467;-67
2022/04/30 04:29:32;;;;;;;9.63;7.80;;;10.30;76.30;;;;;;5075434;28;20498;-67
2022/04/30 04:31:58;;;;;;;11.87;7.60;;;10.30;76.30;;;;;;5075344;28;20465;-67
2022/04/30 04:34:25;;;;;;;9.47;7.40;;;10.30;76.40;;;;;;5075351;28;20484;-67
2022/04/30 04:36:52;;;;;;;9.63;8.17;;;10.30;76.60;;;;;;5075463;28;20451;-66
2022/04/30 04:39:20;;;;;;;8.70;7.23;;;10.20;76.50;;;;;;5075070;28;20853;-67
2022/04/30 04:41:46;;;;;;;8.60;7.20;;;10.20;76.80;;;;;;5075452;28;20468;-67
2022/04/30 04:44:13;;;;;;;7.60;6.80;;;10.20;77.00;;;;;;5075215;28;20459;-67
2022/04/30 04:46:41;;;;;;;8.47;6.90;;;10.20;77.20;;;;;;5074814;28;20983;-67
2022/04/30 04:49:09;;;;;;;9.60;7.30;;;10.20;77.40;;;;;;5075220;28;20447;-67
2022/04/30 04:51:36;;;;;;;7.53;6.83;;;10.10;77.40;;;;;;5075072;28;20472;-67
2022/04/30 04:54:04;;;;;;;12.40;7.20;;;10.10;77.50;;;;;;5074785;28;20487;-66
2022/04/30 04:56:32;;;;;;;10.83;6.10;;;10.10;77.70;;;;;;5074820;28;20818;-67
2022/04/30 04:59:00;;;;;;;10.93;7.70;;;10.10;78.00;;;;;;5075192;28;20452;-66
2022/04/30 05:01:26;;;;;;;7.83;7.00;;;10.10;78.30;;;;;;5074385;28;20981;-67
2022/04/30 05:03:53;;;;;;;10.43;6.67;;;10.00;78.60;;;;;;5074847;28;20445;-67
2022/04/30 05:06:20;;;;;;;10.70;6.80;;;10.00;79.00;;;;;;5074168;28;20830;-67
2022/04/30 05:08:47;;;;;;;8.63;6.83;;;10.10;79.40;;;;;;5074614;28;20452;-66
2022/04/30 05:11:13;;;;;;;8.60;6.97;;;10.00;79.40;;;;;;5074526;28;20550;-66
2022/04/30 05:13:41;;;;;;;8.90;6.67;;;10.00;79.70;;;;;;5074139;28;21006;-66
2022/04/30 05:16:08;;;;;;;11.70;6.80;;;10.00;80.00;;;;;;5074549;28;20451;-67
2022/04/30 05:18:35;;;;;;;6.93;6.07;;;10.00;80.30;;;;;;5074278;28;20456;-67
2022/04/30 05:21:01;;;;;;;9.80;7.03;;;10.10;80.70;;;;;;5074361;28;20475;-66
2022/04/30 05:23:28;;;;;;;8.40;7.50;;;10.10;80.70;;;;;;5074266;28;20445;-66
2022/04/30 05:25:55;;;;;;;11.13;7.87;;;10.10;80.70;;;;;;5074118;28;20855;-66
2022/04/30 05:28:22;;;;;;;11.17;7.67;;;10.10;81.00;;;;;;5074507;28;20452;-66
2022/04/30 05:30:50;;;;;;;13.70;8.33;;;10.10;81.20;;;;;;5074017;28;20817;-67
2022/04/30 05:33:16;;;;;;;9.30;7.67;;;10.10;81.50;;;;;;5073753;28;20857;-66
2022/04/30 05:35:43;;;;;;;8.67;7.57;;;10.10;81.80;;;;;;5074156;28;20480;-67
2022/04/30 05:38:10;;;;;;;10.67;7.43;;;10.20;82.10;;;;;;5073653;28;21047;-66
2022/04/30 05:40:37;;;;;;;11.40;7.60;;;10.10;82.00;;;;;;5074063;28;20444;-66
2022/04/30 05:43:04;;;;;;;9.90;7.00;;;10.10;82.40;;;;;;5073828;28;20467;-67
2022/04/30 05:45:32;;;;;;;10.53;8.03;;;10.20;83.10;;;;;;5074161;28;20424;-67
2022/04/30 05:48:00;;;;;;;8.83;7.87;;;10.20;83.10;;;;;;5073918;28;20502;-67
2022/04/30 05:50:26;;;;;;;11.00;7.83;;;10.10;82.60;;;;;;5073988;28;20445;-67
2022/04/30 05:52:53;;;;;;;11.70;8.00;;;10.00;82.70;;;;;;5073766;28;20839;-67
2022/04/30 05:55:20;;;;;;;11.27;8.03;;;10.00;83.70;;;;;;5073737;28;21077;-67
2022/04/30 05:57:47;;;;;;;11.50;8.90;;;10.00;84.20;;;;;;5074049;28;20460;-67
2022/04/30 06:00:15;;;;;;;8.63;7.83;;;10.10;84.10;;;;;;5074212;28;20451;-66
2022/04/30 06:02:41;;;;;;;11.50;7.77;;;10.10;84.10;;;;;;5073896;28;20480;-66
2022/04/30 06:05:10;;;;;;;12.87;7.10;;;10.10;84.00;;;;;;5073662;28;20505;-66
2022/04/30 06:07:38;;;;;;;9.87;8.03;;;10.10;84.10;;;;;;5073494;28;21020;-66
2022/04/30 06:10:06;;;;;;;12.27;8.27;;;10.20;84.20;;;;;;5073575;28;20479;-66
2022/04/30 06:12:33;;;;;;;9.80;7.67;;;10.30;83.70;;;;;;5073276;28;21043;-66
2022/04/30 06:15:00;;;;;;;12.17;8.90;;;10.30;83.60;;;;;;5073701;28;20484;-66
2022/04/30 06:17:27;;;;;;;12.13;8.00;;;10.30;83.30;;;;;;5072695;28;20431;-66
2022/04/30 06:20:31;;;;;;;11.80;8.70;;;10.40;83.70;;;;;;5073839;28;20475;-67
2022/04/30 06:22:59;;;;;;;11.00;7.93;;;10.50;84.10;;;;;;5073506;28;20429;-67
2022/04/30 06:25:26;;;;;;;13.10;7.50;;;10.60;84.20;;;;;;5073886;28;20433;-67
2022/04/30 06:28:11;;;;;;;10.20;7.93;;;10.80;84.00;;;;;;5073136;28;20498;-67
2022/04/30 06:30:38;;;;;;;10.40;8.20;;;10.90;83.90;;;;;;5072971;28;20896;-67
2022/04/30 06:33:05;;;;;;;12.40;8.10;;;11.00;83.80;;;;;;5073292;28;20495;-66
2022/04/30 06:35:40;;;;;;;9.40;7.93;;;11.10;83.40;;;;;;5073535;28;20836;-67
2022/04/30 06:38:09;;;;;;;12.83;9.07;;;11.20;82.60;;;;;;5073511;28;20432;-67
2022/04/30 06:40:35;;;;;;;13.67;8.80;;;11.30;82.20;;;;;;5073217;28;20925;-66
2022/04/30 06:43:02;;;;;;;11.90;8.70;;;11.50;82.10;;;;;;5073219;28;20460;-67
2022/04/30 06:45:30;;;;;;;9.70;8.27;;;11.60;81.50;;;;;;5073620;28;20463;-67
2022/04/30 06:47:56;;;;;;;13.20;9.00;;;11.70;80.90;;;;;;5073081;28;20484;-66
2022/04/30 06:50:23;;;;;;;13.67;8.50;;;11.90;81.10;;;;;;5073087;28;20449;-67
2022/04/30 06:58:20;;;;;;;15.67;10.27;;;12.40;80.00;;;;;;5073107;28;20412;-67
2022/04/30 07:03:35;;;;;;;13.83;9.53;;;12.70;77.70;;;;;;5047395;28;20431;-67
2022/04/30 07:06:04;;;;;;;12.30;10.70;;;12.90;77.40;;;;;;5073123;28;21068;-67
2022/04/30 07:08:32;;;;;;;11.70;8.70;;;13.10;76.60;;;;;;5073232;28;20460;-67
2022/04/30 07:11:01;;;;;;;11.20;9.53;;;13.20;76.40;;;;;;5073461;28;20460;-67
2022/04/30 07:13:29;;;;;;;12.90;8.70;;;13.40;76.40;;;;;;5073118;28;20449;-67
2022/04/30 07:15:56;;;;;;;12.10;10.10;;;13.60;74.90;;;;;;5072908;28;20488;-67
2022/04/30 07:18:23;;;;;;;12.07;9.20;;;13.80;74.50;;;;;;5073544;28;20452;-67
2022/04/30 07:20:51;;;;;;;11.77;9.53;;;13.90;73.00;;;;;;5073060;28;20440;-67
2022/04/30 07:23:17;;;;;;;16.70;10.00;;;14.10;72.60;;;;;;5073157;28;20513;-67
2022/04/30 07:25:44;;;;;;;10.83;9.60;;;14.20;71.70;;;;;;5073419;28;20445;-67
2022/04/30 07:28:12;;;;;;;11.87;9.30;;;14.40;70.90;;;;;;5073235;28;20449;-67
2022/04/30 07:30:39;;;;;;;13.50;8.40;;;14.40;69.20;;;;;;5076078;28;20452;-67
2022/04/30 07:33:06;;;;;;;11.20;9.80;;;14.50;68.10;;;;;;5076497;28;20962;-67
2022/04/30 07:35:33;;;;;;;10.23;9.20;;;14.60;68.20;;;;;;5076521;28;20472;-66
2022/04/30 07:38:00;;;;;;;11.80;9.10;;;14.70;67.40;;;;;;5076558;28;20452;-66
2022/04/30 07:40:26;;;;;;;10.23;8.70;;;14.90;66.80;;;;;;5076062;28;20444;-67
2022/04/30 07:42:53;;;;;;;15.63;11.20;;;15.00;65.90;;;;;;5075818;28;20840;-67
2022/04/30 07:45:21;;;;;;;13.43;10.37;;;15.10;65.40;;;;;;5076573;28;20424;-67
2022/04/30 07:47:48;;;;;;;10.60;9.37;;;15.30;64.90;;;;;;5076125;28;20963;-67
2022/04/30 07:50:17;;;;;;;12.13;10.00;;;15.20;63.00;;;;;;5076641;28;20512;-67
2022/04/30 07:52:43;;;;;;;17.00;10.30;;;15.10;62.90;;;;;;5076188;28;20475;-67
2022/04/30 07:55:10;;;;;;;9.93;8.93;;;14.90;62.30;;;;;;5076102;28;20472;-67
2022/04/30 07:57:37;;;;;;;12.77;10.63;;;14.70;63.20;;;;;;5075974;28;20812;-67
2022/04/30 08:00:05;;;;;;;14.77;10.50;;;14.60;64.10;;;;;;5076088;28;20890;-67
2022/04/30 08:02:33;;;;;;;11.10;9.70;;;14.70;65.20;;;;;;5075585;28;21029;-67
2022/04/30 08:05:01;;;;;;;13.30;9.60;;;14.80;65.40;;;;;;5076024;28;20456;-67
2022/04/30 08:07:27;;;;;;;11.57;8.70;;;14.90;65.40;;;;;;5075971;28;20429;-67
2022/04/30 08:09:54;;;;;;;10.80;9.70;;;15.00;64.00;;;;;;5076083;28;20480;-67
2022/04/30 08:12:21;;;;;;;10.93;9.40;;;15.10;62.80;;;;;;5075394;28;20457;-67
2022/04/30 08:14:48;;;;;;;11.10;9.17;;;15.10;62.10;;;;;;5076157;28;20476;-66
2022/04/30 08:17:15;;;;;;;10.10;9.20;;;15.10;60.90;;;;;;5076471;28;20458;-67
2022/04/30 08:19:43;;;;;;;9.20;7.20;;;15.00;61.40;;;;;;5075770;28;20445;-67
2022/04/30 08:22:10;;;;;;;11.97;9.67;;;15.10;62.00;;;;;;5075792;28;20472;-67
2022/04/30 08:24:36;;;;;;;13.63;9.07;;;15.10;62.00;;;;;;5076040;28;20444;-67
2022/04/30 08:27:03;;;;;;;8.30;7.43;;;15.10;61.70;;;;;;5075714;28;20451;-66
2022/04/30 08:29:30;;;;;;;10.67;7.17;;;15.20;60.80;;;;;;5076398;28;20449;-67
2022/04/30 08:31:57;;;;;;;9.30;8.00;;;15.40;60.20;;;;;;5075626;28;20469;-67
2022/04/30 08:34:24;;;;;;;10.23;6.90;;;15.60;58.90;;;;;;5075695;28;20448;-67
2022/04/30 08:36:53;;;;;;;8.53;7.67;;;15.80;58.10;;;;;;5075838;28;20536;-67
2022/04/30 08:39:20;;;;;;;8.83;7.87;;;16.10;58.10;;;;;;5075891;28;20452;-68
2022/04/30 08:41:47;;;;;;;8.30;7.30;;;16.40;57.80;;;;;;5075203;28;20473;-67
2022/04/30 08:44:15;;;;;;;10.70;7.67;;;16.50;54.00;;;;;;5075731;28;20469;-66
2022/04/30 08:46:43;;;;;;;12.33;8.23;;;16.50;54.10;;;;;;5075195;28;20510;-67
2022/04/30 08:49:10;;;;;;;10.03;7.80;;;16.50;53.90;;;;;;5075523;28;20459;-67
2022/04/30 08:51:37;;;;;;;9.70;7.73;;;16.40;53.90;;;;;;5076595;28;20468;-67
2022/04/30 08:54:05;;;;;;;9.73;8.43;;;16.20;54.30;;;;;;5075053;28;20818;-67
2022/04/30 08:56:35;;;;;;;8.00;7.20;;;16.10;54.30;;;;;;5075148;28;20537;-67
2022/04/30 08:59:04;;;;;;;8.70;7.83;;;16.20;55.00;;;;;;5075050;28;20487;-67
2022/04/30 09:01:31;;;;;;;8.13;6.50;;;16.30;55.70;;;;;;5075065;28;20491;-67
2022/04/30 09:03:58;;;;;;;7.90;6.00;;;16.30;53.20;;;;;;5075258;28;20444;-67
2022/04/30 09:06:26;;;;;;;8.13;6.47;;;16.40;53.60;;;;;;5075184;28;20441;-67
2022/04/30 09:08:53;;;;;;;8.20;7.40;;;16.50;53.70;;;;;;5075930;28;20425;-67
2022/04/30 09:11:29;;;;;;;9.20;8.17;;;16.60;52.30;;;;;;5076118;28;20467;-67
2022/04/30 09:13:58;;;;;;;8.00;7.20;;;16.60;53.20;;;;;;5075477;28;20441;-67
2022/04/30 09:16:25;;;;;;;7.83;7.13;;;16.90;53.80;;;;;;5074595;28;20822;-67
2022/04/30 09:18:53;;;;;;;8.00;6.73;;;17.30;53.20;;;;;;5074855;28;20449;-67
2022/04/30 09:21:20;;;;;;;6.27;5.33;;;17.80;52.30;;;;;;5075167;28;20500;-68
2022/04/30 09:23:48;;;;;;;9.37;5.53;;;18.30;51.00;;;;;;5075160;28;20475;-67
2022/04/30 09:26:15;;;;;;;6.20;5.60;;;18.70;49.70;;;;;;5075327;28;20449;-68
2022/04/30 09:28:47;;;;;;;5.00;4.50;;;19.10;48.50;;;;;;5075225;28;20449;-68
2022/04/30 09:31:17;;;;;;;6.13;4.80;;;19.50;47.00;;;;;;5074903;28;20983;-68
2022/04/30 09:33:54;;;;;;;5.70;4.27;;;19.80;46.20;;;;;;5074850;28;20452;-68
2022/04/30 09:39:13;;;;;;;6.30;5.00;;;20.10;42.50;;;;;;5074707;28;20438;-68
2022/04/30 09:41:39;;;;;;;4.90;4.50;;;20.50;43.20;;;;;;5074833;28;20495;-68
2022/04/30 09:44:09;;;;;;;4.63;3.80;;;20.80;42.70;;;;;;5074510;28;20463;-68
2022/04/30 09:46:37;;;;;;;5.10;4.70;;;21.20;42.60;;;;;;5074995;28;20441;-68
2022/04/30 09:54:33;;;;;;;4.43;3.87;;;21.50;39.60;;;;;;5075342;28;20442;-68
2022/04/30 09:57:01;;;;;;;5.20;4.27;;;21.90;39.90;;;;;;5074306;28;20481;-68
2022/04/30 09:59:31;;;;;;;4.37;4.07;;;22.30;37.90;;;;;;5074863;28;20456;-68
2022/04/30 10:02:00;;;;;;;5.70;4.50;;;22.70;38.10;;;;;;5074985;28;20472;-68
2022/04/30 10:04:28;;;;;;;5.67;3.77;;;23.10;37.40;;;;;;5075166;28;20524;-68
2022/04/30 10:06:55;;;;;;;4.87;4.03;;;23.40;36.40;;;;;;5073919;28;20444;-65
2022/04/30 10:09:23;;;;;;;5.27;3.43;;;23.60;35.10;;;;;;5074040;28;20847;-65
2022/04/30 10:12:01;;;;;;;7.50;4.80;;;23.80;34.90;;;;;;5073987;28;20460;-66
2022/04/30 10:14:42;;;;;;;4.13;3.80;;;23.90;34.70;;;;;;5074269;28;20437;-66
2022/04/30 10:17:12;;;;;;;4.27;3.63;;;23.80;34.60;;;;;;5073988;28;20468;-66
2022/04/30 10:19:39;;;;;;;5.20;3.63;;;23.70;34.90;;;;;;5073571;28;20973;-66
2022/04/30 10:22:11;;;;;;;5.60;4.03;;;24.00;35.20;;;;;;5074275;28;20465;-66
2022/04/30 10:24:42;;;;;;;6.47;3.73;;;24.50;35.50;;;;;;5073719;28;20490;-66
2022/04/30 10:27:09;;;;;;;3.57;3.27;;;25.10;34.00;;;;;;5074644;28;20429;-69
2022/04/30 10:29:37;;;;;;;3.53;3.07;;;25.70;31.70;;;;;;5074458;28;20440;-69
2022/04/30 10:32:05;;;;;;;4.03;3.73;;;26.20;30.00;;;;;;5075279;28;20476;-69
2022/04/30 10:34:33;;;;;;;4.73;3.33;;;26.60;29.20;;;;;;5074881;28;20456;-67
2022/04/30 10:37:02;;;;;;;4.90;3.57;;;27.00;29.40;;;;;;5075160;28;20486;-67
2022/04/30 10:39:29;;;;;;;5.10;2.90;;;27.50;29.50;;;;;;5075236;28;20445;-67
2022/04/30 10:41:57;;;;;;;4.63;4.00;;;28.10;28.30;;;;;;5075692;28;20468;-67
2022/04/30 10:44:31;;;;;;;4.30;3.90;;;28.20;26.40;;;;;;5075374;28;20467;-67
2022/04/30 10:47:17;;;;;;;3.90;3.57;;;27.60;26.80;;;;;;5074860;28;20955;-67
2022/04/30 10:49:43;;;;;;;4.23;3.83;;;27.40;28.00;;;;;;5073644;28;20801;-69
2022/04/30 10:52:10;;;;;;;4.80;4.40;;;27.60;28.00;;;;;;5074416;28;20967;-67
2022/04/30 10:54:40;;;;;;;5.50;4.93;;;27.20;27.00;;;;;;5074768;28;20497;-66
2022/04/30 10:57:09;;;;;;;5.97;4.17;;;26.50;27.70;;;;;;5074886;28;20472;-67
2022/04/30 10:59:36;;;;;;;4.23;3.83;;;26.60;28.90;;;;;;5074006;28;20877;-66
2022/04/30 11:02:03;;;;;;;4.80;4.40;;;27.10;28.90;;;;;;5074326;28;20465;-67
2022/04/30 11:04:31;;;;;;;4.33;3.90;;;27.30;26.50;;;;;;5075738;28;20433;-67
2022/04/30 11:07:00;;;;;;;4.43;3.20;;;27.60;27.20;;;;;;5078431;28;20425;-67
2022/04/30 11:09:27;;;;;;;3.60;3.30;;;28.10;26.90;;;;;;5078666;28;20472;-67
2022/04/30 11:11:54;;;;;;;5.70;4.00;;;29.00;26.00;;;;;;5077438;28;20464;-68
2022/04/30 11:14:21;;;;;;;7.60;3.80;;;30.00;26.00;;;;;;5076883;28;20431;-69
2022/04/30 11:16:49;;;;;;;4.17;3.23;;;30.80;24.90;;;;;;5077464;28;20532;-68
2022/04/30 11:19:18;;;;;;;3.80;3.53;;;31.30;24.30;;;;;;5077537;28;20439;-68
2022/04/30 11:21:50;;;;;;;4.17;3.77;;;31.60;23.30;;;;;;5077105;28;20851;-68
2022/04/30 11:24:25;;;;;;;3.87;3.57;;;31.70;23.00;;;;;;5077049;28;20920;-68
2022/04/30 11:26:55;;;;;;;3.67;3.37;;;31.40;23.00;;;;;;5077496;28;20440;-68
2022/04/30 11:29:22;;;;;;;3.60;3.30;;;30.90;21.90;;;;;;5077246;28;20487;-68
2022/04/30 11:31:51;;;;;;;4.17;3.87;;;30.70;22.50;;;;;;5077057;28;21058;-68
2022/04/30 11:34:19;;;;;;;3.40;3.20;;;30.60;21.90;;;;;;5077678;28;20490;-68
2022/04/30 11:36:48;;;;;;;3.07;2.87;;;30.40;23.00;;;;;;5077157;28;20488;-68
2022/04/30 11:39:16;;;;;;;3.60;3.30;;;30.60;23.80;;;;;;5078666;28;20456;-68
2022/04/30 11:41:45;;;;;;;4.00;3.00;;;31.20;24.00;;;;;;5078919;28;20472;-69
2022/04/30 11:44:12;;;;;;;3.40;3.10;;;31.50;23.60;;;;;;5078386;28;20460;-68
2022/04/30 11:46:40;;;;;;;3.47;2.83;;;31.50;23.00;;;;;;5079174;28;20443;-68
2022/04/30 11:49:09;;;;;;;5.47;3.37;;;31.60;22.70;;;;;;5079537;28;20436;-68
2022/04/30 11:51:36;;;;;;;5.73;3.20;;;32.10;22.80;;;;;;5079528;28;20883;-68
2022/04/30 11:54:08;;;;;;;4.10;3.37;;;32.80;22.20;;;;;;5078566;28;20447;-68
2022/04/30 11:56:36;;;;;;;3.57;3.20;;;33.20;21.50;;;;;;5079715;28;21036;-69
2022/04/30 11:59:03;;;;;;;4.20;3.73;;;32.80;21.20;;;;;;5078965;28;20817;-68
2022/04/30 12:01:31;;;;;;;3.43;3.13;;;32.20;21.10;;;;;;5078760;28;20471;-68
2022/04/30 12:04:00;;;;;;;3.27;3.07;;;31.40;21.90;;;;;;5079049;28;20451;-68
2022/04/30 12:06:27;;;;;;;4.53;3.43;;;31.20;21.90;;;;;;5078968;28;20440;-68
2022/04/30 12:08:54;;;;;;;3.43;3.13;;;31.50;22.30;;;;;;5078041;28;20459;-68
2022/04/30 12:11:23;;;;;;;3.40;3.20;;;32.20;22.20;;;;;;5078140;28;20471;-69
2022/04/30 12:14:03;;;;;;;3.53;3.23;;;32.80;21.60;;;;;;5079446;28;20471;-68
2022/04/30 12:16:40;;;;;;;3.53;3.23;;;33.10;21.40;;;;;;5078800;28;20460;-68
2022/04/30 12:24:49;;;;;;;3.83;2.83;;;35.30;19.00;;;;;;5077500;28;20787;-68
2022/04/30 12:27:24;;;;;;;2.63;2.40;;;35.60;18.40;;;;;;5077898;28;20456;-69
2022/04/30 12:30:00;;;;;;;3.40;2.80;;;35.40;18.20;;;;;;5078409;28;20451;-68
2022/04/30 12:32:27;;;;;;;3.37;3.07;;;34.80;18.80;;;;;;5078612;28;20529;-68
2022/04/30 12:34:56;;;;;;;3.50;2.33;;;34.70;18.60;;;;;;5078370;28;20610;-68
2022/04/30 12:37:31;;;;;;;3.33;3.03;;;34.80;18.30;;;;;;5077753;28;20579;-68
2022/04/30 12:39:58;;;;;;;3.50;3.17;;;35.50;18.90;;;;;;5078777;28;20795;-68
2022/04/30 12:42:26;;;;;;;2.60;2.40;;;36.00;17.70;;;;;;5078739;28;20525;-69
2022/04/30 12:44:52;;;;;;;2.83;2.63;;;36.30;16.70;;;;;;5077903;28;20463;-70
2022/04/30 12:47:19;;;;;;;5.57;2.30;;;36.60;16.90;;;;;;5079119;28;20459;-70
2022/04/30 12:49:46;;;;;;;2.83;2.60;;;36.40;16.60;;;;;;5079041;28;20459;-69
2022/04/30 12:52:13;;;;;;;4.50;2.40;;;36.30;15.90;;;;;;5079608;28;20491;-69
2022/04/30 12:54:40;;;;;;;2.70;2.33;;;36.30;16.80;;;;;;5079639;28;20466;-69
2022/04/30 12:57:07;;;;;;;2.87;2.20;;;36.60;16.80;;;;;;5079299;28;20491;-70
2022/04/30 12:59:36;;;;;;;2.90;2.60;;;36.20;15.90;;;;;;5078920;28;20547;-70
2022/04/30 13:02:03;;;;;;;2.37;2.07;;;35.50;17.00;;;;;;5077929;28;20468;-69
2022/04/30 13:04:30;;;;;;;3.20;2.37;;;35.40;17.80;;;;;;5077735;28;20451;-70
2022/04/30 13:06:57;;;;;;;1.80;1.70;;;35.90;17.30;;;;;;5077861;28;20432;-70
2022/04/30 13:14:55;;;;;;;2.53;2.33;;;37.90;14.90;;;;;;5077792;28;20249;-70
2022/04/30 13:17:22;;;;;;;1.83;1.73;;;38.10;14.10;;;;;;5077253;28;20782;-70
2022/04/30 13:19:49;;;;;;;3.13;2.25;;;38.30;15.20;;;;;;5077579;28;20205;-70
2022/04/30 13:25:38;;;;;;;2.35;2.15;;;38.90;15.50;;;;;;5077183;28;20158;-70
2022/04/30 13:28:06;;;;;;;2.38;2.17;;;39.60;15.20;;;;;;5077182;28;20598;-70
2022/04/30 13:30:34;;;;;;;3.08;1.55;;;40.10;15.00;;;;;;5076947;28;20225;-70
2022/04/30 13:33:01;;;;;;;2.00;1.67;;;40.70;14.50;;;;;;5077611;28;20206;-70
2022/04/30 13:35:27;;;;;;;1.55;1.45;;;41.30;14.40;;;;;;5077543;28;20563;-70
2022/04/30 13:37:54;;;;;;;2.75;1.88;;;41.70;12.90;;;;;;5077009;28;20719;-70
2022/04/30 13:40:21;;;;;;;3.28;1.60;;;40.80;12.60;;;;;;5076874;28;20194;-70
2022/04/30 13:42:48;;;;;;;2.00;1.80;;;40.70;14.40;;;;;;5074250;28;20221;-70